sensor_id;sensor_type;location;lat;lon;timestamp;temperature;humidity
13598;DHT22;38563;54.258;12.574;2022-07-06T00:01:41;12.20;99.90
13598;DHT22;38563;54.258;12.574;2022-07-06T00:04:07;12.20;99.90
13598;DHT22;38563;54.258;12.574;2022-07-06T00:06:36;12.10;99.90
13598;DHT22;38563;54.258;12.574;2022-07-06T00:09:03;12.10;99.90
13598;DHT22;38563;54.258;12.574;2022-07-06T00:11:30;12.10;99.90
13598;DHT22;38563;54.258;12.574;2022-07-06T00:13:57;12.00;99.90
13598;DHT22;38563;54.258;12.574;2022-07-06T00:16:24;12.00;99.90
13598;DHT22;38563;54.258;12.574;2022-07-06T00:18:51;12.00;99.90
13598;DHT22;38563;54.258;12.574;2022-07-06T00:21:18;12.00;99.90
13598;DHT22;38563;54.258;12.574;2022-07-06T00:23:46;12.00;99.90
13598;DHT22;38563;54.258;12.574;2022-07-06T00:26:13;12.00;99.90
13598;DHT22;38563;54.258;12.574;2022-07-06T00:28:40;12.00;99.90
13598;DHT22;38563;54.258;12.574;2022-07-06T00:31:07;12.10;99.90
13598;DHT22;38563;54.258;12.574;2022-07-06T00:33:33;12.10;99.90
13598;DHT22;38563;54.258;12.574;2022-07-06T00:36:00;12.20;99.90
13598;DHT22;38563;54.258;12.574;2022-07-06T00:38:27;12.30;99.90
13598;DHT22;38563;54.258;12.574;2022-07-06T00:40:55;12.30;99.90
13598;DHT22;38563;54.258;12.574;2022-07-06T00:43:22;12.40;99.90
13598;DHT22;38563;54.258;12.574;2022-07-06T00:45:49;12.40;99.90
13598;DHT22;38563;54.258;12.574;2022-07-06T00:48:15;12.50;99.90
13598;DHT22;38563;54.258;12.574;2022-07-06T00:50:43;12.40;99.90
13598;DHT22;38563;54.258;12.574;2022-07-06T00:53:10;12.40;99.90
13598;DHT22;38563;54.258;12.574;2022-07-06T00:55:38;12.40;99.90
13598;DHT22;38563;54.258;12.574;2022-07-06T00:58:07;12.40;99.90
13598;DHT22;38563;54.258;12.574;2022-07-06T01:00:35;12.50;99.90
13598;DHT22;38563;54.258;12.574;2022-07-06T01:03:02;12.50;99.90
13598;DHT22;38563;54.258;12.574;2022-07-06T01:05:29;12.60;99.90
13598;DHT22;38563;54.258;12.574;2022-07-06T01:07:56;12.50;99.90
13598;DHT22;38563;54.258;12.574;2022-07-06T01:10:23;12.60;99.90
13598;DHT22;38563;54.258;12.574;2022-07-06T01:12:50;12.60;99.90
13598;DHT22;38563;54.258;12.574;2022-07-06T01:15:20;12.60;99.90
13598;DHT22;38563;54.258;12.574;2022-07-06T01:17:48;12.60;99.90
13598;DHT22;38563;54.258;12.574;2022-07-06T01:20:18;12.70;99.90
13598;DHT22;38563;54.258;12.574;2022-07-06T01:22:46;12.70;99.90
13598;DHT22;38563;54.258;12.574;2022-07-06T01:25:14;12.70;99.90
13598;DHT22;38563;54.258;12.574;2022-07-06T01:27:41;12.80;99.90
13598;DHT22;38563;54.258;12.574;2022-07-06T01:30:10;12.80;99.90
13598;DHT22;38563;54.258;12.574;2022-07-06T01:32:38;12.80;99.90
13598;DHT22;38563;54.258;12.574;2022-07-06T01:35:06;12.80;99.90
13598;DHT22;38563;54.258;12.574;2022-07-06T01:37:35;12.90;99.90
13598;DHT22;38563;54.258;12.574;2022-07-06T01:40:04;12.90;99.90
13598;DHT22;38563;54.258;12.574;2022-07-06T01:42:31;12.90;99.90
13598;DHT22;38563;54.258;12.574;2022-07-06T01:44:58;12.90;99.90
13598;DHT22;38563;54.258;12.574;2022-07-06T01:47:25;12.90;99.90
13598;DHT22;38563;54.258;12.574;2022-07-06T01:49:52;12.90;99.90
13598;DHT22;38563;54.258;12.574;2022-07-06T01:52:21;12.90;99.90
13598;DHT22;38563;54.258;12.574;2022-07-06T01:54:49;12.90;99.90
13598;DHT22;38563;54.258;12.574;2022-07-06T01:57:16;13.00;99.90
13598;DHT22;38563;54.258;12.574;2022-07-06T01:59:42;13.00;99.90
13598;DHT22;38563;54.258;12.574;2022-07-06T02:02:09;13.10;99.90
13598;DHT22;38563;54.258;12.574;2022-07-06T02:04:37;13.10;99.90
13598;DHT22;38563;54.258;12.574;2022-07-06T02:07:03;13.10;99.90
13598;DHT22;38563;54.258;12.574;2022-07-06T02:09:30;13.10;99.90
13598;DHT22;38563;54.258;12.574;2022-07-06T02:11:58;13.10;99.90
13598;DHT22;38563;54.258;12.574;2022-07-06T02:14:25;13.00;99.90
13598;DHT22;38563;54.258;12.574;2022-07-06T02:16:52;13.00;99.90
13598;DHT22;38563;54.258;12.574;2022-07-06T02:19:18;13.00;99.90
13598;DHT22;38563;54.258;12.574;2022-07-06T02:21:45;13.00;99.90
13598;DHT22;38563;54.258;12.574;2022-07-06T02:24:12;12.90;99.90
13598;DHT22;38563;54.258;12.574;2022-07-06T02:26:40;13.00;99.90
13598;DHT22;38563;54.258;12.574;2022-07-06T02:29:08;13.00;99.90
13598;DHT22;38563;54.258;12.574;2022-07-06T02:31:35;13.00;99.90
13598;DHT22;38563;54.258;12.574;2022-07-06T02:34:01;13.00;99.90
13598;DHT22;38563;54.258;12.574;2022-07-06T02:36:28;13.10;99.90
13598;DHT22;38563;54.258;12.574;2022-07-06T02:38:55;13.10;99.90
13598;DHT22;38563;54.258;12.574;2022-07-06T02:41:22;13.10;99.90
13598;DHT22;38563;54.258;12.574;2022-07-06T02:43:49;13.20;99.90
13598;DHT22;38563;54.258;12.574;2022-07-06T02:46:17;13.20;99.90
13598;DHT22;38563;54.258;12.574;2022-07-06T02:48:45;13.30;99.90
13598;DHT22;38563;54.258;12.574;2022-07-06T02:51:12;13.30;99.90
13598;DHT22;38563;54.258;12.574;2022-07-06T02:53:40;13.10;99.90
13598;DHT22;38563;54.258;12.574;2022-07-06T02:56:07;12.90;99.90
13598;DHT22;38563;54.258;12.574;2022-07-06T02:58:34;12.80;99.90
13598;DHT22;38563;54.258;12.574;2022-07-06T03:01:01;12.60;99.90
13598;DHT22;38563;54.258;12.574;2022-07-06T03:03:29;12.50;99.90
13598;DHT22;38563;54.258;12.574;2022-07-06T03:05:57;12.50;99.90
13598;DHT22;38563;54.258;12.574;2022-07-06T03:08:24;12.40;99.90
13598;DHT22;38563;54.258;12.574;2022-07-06T03:10:51;12.40;99.90
13598;DHT22;38563;54.258;12.574;2022-07-06T03:13:18;12.30;99.90
13598;DHT22;38563;54.258;12.574;2022-07-06T03:15:45;12.30;99.90
13598;DHT22;38563;54.258;12.574;2022-07-06T03:18:14;12.20;99.90
13598;DHT22;38563;54.258;12.574;2022-07-06T03:20:42;12.20;99.90
13598;DHT22;38563;54.258;12.574;2022-07-06T03:23:11;12.30;99.90
13598;DHT22;38563;54.258;12.574;2022-07-06T03:25:38;12.30;99.90
13598;DHT22;38563;54.258;12.574;2022-07-06T03:28:05;12.30;99.90
13598;DHT22;38563;54.258;12.574;2022-07-06T03:30:32;12.30;99.90
13598;DHT22;38563;54.258;12.574;2022-07-06T03:32:59;12.30;99.90
13598;DHT22;38563;54.258;12.574;2022-07-06T03:35:28;12.30;99.90
13598;DHT22;38563;54.258;12.574;2022-07-06T03:37:57;12.40;99.90
13598;DHT22;38563;54.258;12.574;2022-07-06T03:40:28;12.40;99.90
13598;DHT22;38563;54.258;12.574;2022-07-06T03:42:55;12.50;99.90
13598;DHT22;38563;54.258;12.574;2022-07-06T03:45:24;12.60;99.90
13598;DHT22;38563;54.258;12.574;2022-07-06T03:47:51;12.70;99.90
13598;DHT22;38563;54.258;12.574;2022-07-06T03:50:19;12.80;99.90
13598;DHT22;38563;54.258;12.574;2022-07-06T03:52:46;12.80;99.90
13598;DHT22;38563;54.258;12.574;2022-07-06T03:55:15;12.80;99.90
13598;DHT22;38563;54.258;12.574;2022-07-06T03:57:47;13.00;99.90
13598;DHT22;38563;54.258;12.574;2022-07-06T04:00:17;13.10;99.90
13598;DHT22;38563;54.258;12.574;2022-07-06T04:02:51;13.10;99.90
13598;DHT22;38563;54.258;12.574;2022-07-06T04:05:22;13.20;99.90
13598;DHT22;38563;54.258;12.574;2022-07-06T04:07:51;13.20;99.90
13598;DHT22;38563;54.258;12.574;2022-07-06T04:10:22;13.10;99.90
13598;DHT22;38563;54.258;12.574;2022-07-06T04:12:50;13.10;99.90
13598;DHT22;38563;54.258;12.574;2022-07-06T04:15:18;13.10;99.90
13598;DHT22;38563;54.258;12.574;2022-07-06T04:17:45;13.10;99.90
13598;DHT22;38563;54.258;12.574;2022-07-06T04:20:36;13.10;99.90
13598;DHT22;38563;54.258;12.574;2022-07-06T04:23:02;13.00;99.90
13598;DHT22;38563;54.258;12.574;2022-07-06T04:25:31;13.00;99.90
13598;DHT22;38563;54.258;12.574;2022-07-06T04:28:01;13.00;99.90
13598;DHT22;38563;54.258;12.574;2022-07-06T04:30:29;12.90;99.90
13598;DHT22;38563;54.258;12.574;2022-07-06T04:32:56;12.90;99.90
13598;DHT22;38563;54.258;12.574;2022-07-06T04:35:26;12.90;99.90
13598;DHT22;38563;54.258;12.574;2022-07-06T04:37:54;13.00;99.90
13598;DHT22;38563;54.258;12.574;2022-07-06T04:40:21;13.00;99.90
13598;DHT22;38563;54.258;12.574;2022-07-06T04:42:53;13.10;99.90
13598;DHT22;38563;54.258;12.574;2022-07-06T04:45:21;13.20;99.90
13598;DHT22;38563;54.258;12.574;2022-07-06T04:47:48;13.30;99.90
13598;DHT22;38563;54.258;12.574;2022-07-06T04:50:17;13.30;99.90
13598;DHT22;38563;54.258;12.574;2022-07-06T04:52:45;13.40;99.90
13598;DHT22;38563;54.258;12.574;2022-07-06T04:55:12;13.50;99.90
13598;DHT22;38563;54.258;12.574;2022-07-06T04:57:40;13.60;99.90
13598;DHT22;38563;54.258;12.574;2022-07-06T05:00:10;13.70;99.90
13598;DHT22;38563;54.258;12.574;2022-07-06T05:02:37;13.70;99.90
13598;DHT22;38563;54.258;12.574;2022-07-06T05:05:04;13.70;99.90
13598;DHT22;38563;54.258;12.574;2022-07-06T05:07:32;13.70;99.90
13598;DHT22;38563;54.258;12.574;2022-07-06T05:10:04;13.80;99.90
13598;DHT22;38563;54.258;12.574;2022-07-06T05:12:32;13.80;99.90
13598;DHT22;38563;54.258;12.574;2022-07-06T05:14:59;13.80;99.90
13598;DHT22;38563;54.258;12.574;2022-07-06T05:17:27;13.90;99.90
13598;DHT22;38563;54.258;12.574;2022-07-06T05:19:54;13.90;99.90
13598;DHT22;38563;54.258;12.574;2022-07-06T05:22:21;13.90;99.90
13598;DHT22;38563;54.258;12.574;2022-07-06T05:24:47;14.00;99.90
13598;DHT22;38563;54.258;12.574;2022-07-06T05:27:14;14.00;99.90
13598;DHT22;38563;54.258;12.574;2022-07-06T05:29:41;13.90;99.90
13598;DHT22;38563;54.258;12.574;2022-07-06T05:32:08;13.80;99.90
13598;DHT22;38563;54.258;12.574;2022-07-06T05:34:37;13.90;99.90
13598;DHT22;38563;54.258;12.574;2022-07-06T05:37:04;13.80;99.90
13598;DHT22;38563;54.258;12.574;2022-07-06T05:39:31;13.80;99.90
13598;DHT22;38563;54.258;12.574;2022-07-06T05:41:58;13.90;99.90
13598;DHT22;38563;54.258;12.574;2022-07-06T05:44:24;13.90;99.90
13598;DHT22;38563;54.258;12.574;2022-07-06T05:46:52;13.90;99.90
13598;DHT22;38563;54.258;12.574;2022-07-06T05:49:39;13.90;99.90
13598;DHT22;38563;54.258;12.574;2022-07-06T05:52:24;13.90;99.90
13598;DHT22;38563;54.258;12.574;2022-07-06T05:54:50;14.00;99.90
13598;DHT22;38563;54.258;12.574;2022-07-06T05:57:17;14.10;99.90
13598;DHT22;38563;54.258;12.574;2022-07-06T05:59:44;14.20;99.90
13598;DHT22;38563;54.258;12.574;2022-07-06T06:02:11;14.20;99.90
13598;DHT22;38563;54.258;12.574;2022-07-06T06:04:39;14.40;99.90
13598;DHT22;38563;54.258;12.574;2022-07-06T06:07:06;14.60;99.90
13598;DHT22;38563;54.258;12.574;2022-07-06T06:09:33;14.70;99.90
13598;DHT22;38563;54.258;12.574;2022-07-06T06:12:00;14.80;99.90
13598;DHT22;38563;54.258;12.574;2022-07-06T06:14:30;15.00;99.90
13598;DHT22;38563;54.258;12.574;2022-07-06T06:16:57;15.00;99.90
13598;DHT22;38563;54.258;12.574;2022-07-06T06:19:24;15.10;99.90
13598;DHT22;38563;54.258;12.574;2022-07-06T06:21:52;15.20;99.90
13598;DHT22;38563;54.258;12.574;2022-07-06T06:24:19;15.10;99.90
13598;DHT22;38563;54.258;12.574;2022-07-06T06:26:46;15.10;99.90
13598;DHT22;38563;54.258;12.574;2022-07-06T06:29:12;15.10;99.90
13598;DHT22;38563;54.258;12.574;2022-07-06T06:31:39;15.00;99.90
13598;DHT22;38563;54.258;12.574;2022-07-06T06:34:06;15.10;99.90
13598;DHT22;38563;54.258;12.574;2022-07-06T06:36:33;15.10;99.90
13598;DHT22;38563;54.258;12.574;2022-07-06T06:39:01;15.20;99.90
13598;DHT22;38563;54.258;12.574;2022-07-06T06:41:28;15.30;99.90
13598;DHT22;38563;54.258;12.574;2022-07-06T06:43:55;15.40;99.90
13598;DHT22;38563;54.258;12.574;2022-07-06T06:46:28;15.40;99.90
13598;DHT22;38563;54.258;12.574;2022-07-06T06:48:55;15.40;99.90
13598;DHT22;38563;54.258;12.574;2022-07-06T06:51:21;15.40;99.90
13598;DHT22;38563;54.258;12.574;2022-07-06T06:53:48;15.40;99.90
13598;DHT22;38563;54.258;12.574;2022-07-06T06:56:16;15.50;99.90
13598;DHT22;38563;54.258;12.574;2022-07-06T06:58:43;15.40;99.90
13598;DHT22;38563;54.258;12.574;2022-07-06T07:01:09;15.50;99.90
13598;DHT22;38563;54.258;12.574;2022-07-06T07:03:36;15.40;99.90
13598;DHT22;38563;54.258;12.574;2022-07-06T07:06:03;15.40;99.90
13598;DHT22;38563;54.258;12.574;2022-07-06T07:08:30;15.60;99.90
13598;DHT22;38563;54.258;12.574;2022-07-06T07:10:56;15.80;99.90
13598;DHT22;38563;54.258;12.574;2022-07-06T07:13:25;15.90;99.90
13598;DHT22;38563;54.258;12.574;2022-07-06T07:15:52;15.80;99.90
13598;DHT22;38563;54.258;12.574;2022-07-06T07:18:18;15.90;99.90
13598;DHT22;38563;54.258;12.574;2022-07-06T07:20:45;15.90;99.90
13598;DHT22;38563;54.258;12.574;2022-07-06T07:23:12;15.90;99.90
13598;DHT22;38563;54.258;12.574;2022-07-06T07:25:38;15.90;99.90
13598;DHT22;38563;54.258;12.574;2022-07-06T07:28:05;16.00;99.90
13598;DHT22;38563;54.258;12.574;2022-07-06T07:30:33;16.10;99.90
13598;DHT22;38563;54.258;12.574;2022-07-06T07:33:00;16.10;99.90
13598;DHT22;38563;54.258;12.574;2022-07-06T07:35:27;16.10;99.90
13598;DHT22;38563;54.258;12.574;2022-07-06T07:37:54;16.10;99.90
13598;DHT22;38563;54.258;12.574;2022-07-06T07:40:21;16.20;99.90
13598;DHT22;38563;54.258;12.574;2022-07-06T07:42:48;16.40;99.90
13598;DHT22;38563;54.258;12.574;2022-07-06T07:45:14;16.50;99.90
13598;DHT22;38563;54.258;12.574;2022-07-06T07:47:42;16.50;99.90
13598;DHT22;38563;54.258;12.574;2022-07-06T07:50:09;16.50;99.90
13598;DHT22;38563;54.258;12.574;2022-07-06T07:52:36;16.30;99.90
13598;DHT22;38563;54.258;12.574;2022-07-06T07:55:04;16.40;99.90
13598;DHT22;38563;54.258;12.574;2022-07-06T07:57:31;16.40;99.90
13598;DHT22;38563;54.258;12.574;2022-07-06T07:59:57;16.30;99.90
13598;DHT22;38563;54.258;12.574;2022-07-06T08:02:24;16.30;99.90
13598;DHT22;38563;54.258;12.574;2022-07-06T08:04:52;16.20;99.90
13598;DHT22;38563;54.258;12.574;2022-07-06T08:07:19;16.30;99.90
13598;DHT22;38563;54.258;12.574;2022-07-06T08:09:45;16.70;99.90
13598;DHT22;38563;54.258;12.574;2022-07-06T08:12:12;17.10;99.90
13598;DHT22;38563;54.258;12.574;2022-07-06T08:14:39;17.50;99.90
13598;DHT22;38563;54.258;12.574;2022-07-06T08:17:05;17.40;99.90
13598;DHT22;38563;54.258;12.574;2022-07-06T08:19:32;17.20;99.90
13598;DHT22;38563;54.258;12.574;2022-07-06T08:22:00;17.30;99.90
13598;DHT22;38563;54.258;12.574;2022-07-06T08:24:32;17.40;99.90
13598;DHT22;38563;54.258;12.574;2022-07-06T08:26:59;17.10;99.90
13598;DHT22;38563;54.258;12.574;2022-07-06T08:29:26;17.10;99.90
13598;DHT22;38563;54.258;12.574;2022-07-06T08:31:52;17.20;99.90
13598;DHT22;38563;54.258;12.574;2022-07-06T08:34:19;17.40;99.90
13598;DHT22;38563;54.258;12.574;2022-07-06T08:36:46;17.70;99.90
13598;DHT22;38563;54.258;12.574;2022-07-06T08:39:14;17.70;99.90
13598;DHT22;38563;54.258;12.574;2022-07-06T08:41:41;17.70;99.90
13598;DHT22;38563;54.258;12.574;2022-07-06T08:44:09;17.70;99.90
13598;DHT22;38563;54.258;12.574;2022-07-06T08:46:38;17.70;99.90
13598;DHT22;38563;54.258;12.574;2022-07-06T08:49:06;17.60;99.90
13598;DHT22;38563;54.258;12.574;2022-07-06T08:51:34;17.40;99.90
13598;DHT22;38563;54.258;12.574;2022-07-06T08:54:02;17.40;99.90
13598;DHT22;38563;54.258;12.574;2022-07-06T08:56:30;17.50;99.90
13598;DHT22;38563;54.258;12.574;2022-07-06T08:58:57;17.50;99.90
13598;DHT22;38563;54.258;12.574;2022-07-06T09:01:24;17.50;99.90
13598;DHT22;38563;54.258;12.574;2022-07-06T09:03:52;17.70;99.90
13598;DHT22;38563;54.258;12.574;2022-07-06T09:06:24;18.00;99.90
13598;DHT22;38563;54.258;12.574;2022-07-06T09:08:53;17.70;99.90
13598;DHT22;38563;54.258;12.574;2022-07-06T09:11:20;17.60;99.90
13598;DHT22;38563;54.258;12.574;2022-07-06T09:13:49;18.00;99.90
13598;DHT22;38563;54.258;12.574;2022-07-06T09:16:16;18.50;99.90
13598;DHT22;38563;54.258;12.574;2022-07-06T09:18:44;18.70;99.90
13598;DHT22;38563;54.258;12.574;2022-07-06T09:21:11;18.70;99.90
13598;DHT22;38563;54.258;12.574;2022-07-06T09:23:38;19.50;99.90
13598;DHT22;38563;54.258;12.574;2022-07-06T09:26:06;19.90;99.90
13598;DHT22;38563;54.258;12.574;2022-07-06T09:28:41;19.40;99.90
13598;DHT22;38563;54.258;12.574;2022-07-06T09:31:09;18.90;99.90
13598;DHT22;38563;54.258;12.574;2022-07-06T09:33:36;18.80;99.90
13598;DHT22;38563;54.258;12.574;2022-07-06T09:36:04;18.80;99.90
13598;DHT22;38563;54.258;12.574;2022-07-06T09:38:32;19.10;99.90
13598;DHT22;38563;54.258;12.574;2022-07-06T09:40:58;19.50;99.90
13598;DHT22;38563;54.258;12.574;2022-07-06T09:43:28;19.10;99.90
13598;DHT22;38563;54.258;12.574;2022-07-06T09:45:56;19.20;99.90
13598;DHT22;38563;54.258;12.574;2022-07-06T09:48:25;19.10;99.90
13598;DHT22;38563;54.258;12.574;2022-07-06T09:50:54;18.90;99.90
13598;DHT22;38563;54.258;12.574;2022-07-06T09:53:22;18.90;99.90
13598;DHT22;38563;54.258;12.574;2022-07-06T09:55:52;19.00;99.90
13598;DHT22;38563;54.258;12.574;2022-07-06T09:58:19;19.10;99.90
13598;DHT22;38563;54.258;12.574;2022-07-06T10:00:48;19.30;99.90
13598;DHT22;38563;54.258;12.574;2022-07-06T10:03:15;19.30;99.90
13598;DHT22;38563;54.258;12.574;2022-07-06T10:05:45;19.00;99.90
13598;DHT22;38563;54.258;12.574;2022-07-06T10:08:13;18.40;99.90
13598;DHT22;38563;54.258;12.574;2022-07-06T10:10:41;18.40;99.90
13598;DHT22;38563;54.258;12.574;2022-07-06T10:13:09;19.20;99.90
13598;DHT22;38563;54.258;12.574;2022-07-06T10:15:37;19.90;99.90
13598;DHT22;38563;54.258;12.574;2022-07-06T10:18:05;20.00;99.90
13598;DHT22;38563;54.258;12.574;2022-07-06T10:20:34;20.20;99.90
13598;DHT22;38563;54.258;12.574;2022-07-06T10:23:05;19.80;99.90
13598;DHT22;38563;54.258;12.574;2022-07-06T10:25:32;19.60;99.90
13598;DHT22;38563;54.258;12.574;2022-07-06T10:28:00;19.60;99.90
13598;DHT22;38563;54.258;12.574;2022-07-06T10:30:28;19.70;99.90
13598;DHT22;38563;54.258;12.574;2022-07-06T10:32:57;19.80;99.90
13598;DHT22;38563;54.258;12.574;2022-07-06T10:35:24;20.20;99.90
13598;DHT22;38563;54.258;12.574;2022-07-06T10:38:04;20.20;99.90
13598;DHT22;38563;54.258;12.574;2022-07-06T10:40:35;20.20;99.90
13598;DHT22;38563;54.258;12.574;2022-07-06T10:43:20;19.90;99.90
13598;DHT22;38563;54.258;12.574;2022-07-06T10:45:51;19.50;99.90
13598;DHT22;38563;54.258;12.574;2022-07-06T10:48:19;19.30;99.90
13598;DHT22;38563;54.258;12.574;2022-07-06T10:50:48;19.10;99.90
13598;DHT22;38563;54.258;12.574;2022-07-06T10:53:19;18.70;99.90
13598;DHT22;38563;54.258;12.574;2022-07-06T10:55:50;18.70;99.90
13598;DHT22;38563;54.258;12.574;2022-07-06T10:58:35;19.20;99.90
13598;DHT22;38563;54.258;12.574;2022-07-06T11:01:03;19.70;99.90
13598;DHT22;38563;54.258;12.574;2022-07-06T11:03:42;20.20;99.90
13598;DHT22;38563;54.258;12.574;2022-07-06T11:06:16;20.50;99.90
13598;DHT22;38563;54.258;12.574;2022-07-06T11:08:50;20.90;99.90
13598;DHT22;38563;54.258;12.574;2022-07-06T11:11:18;20.80;99.90
13598;DHT22;38563;54.258;12.574;2022-07-06T11:13:54;20.40;99.90
13598;DHT22;38563;54.258;12.574;2022-07-06T11:16:23;20.10;99.90
13598;DHT22;38563;54.258;12.574;2022-07-06T11:19:04;20.20;99.90
13598;DHT22;38563;54.258;12.574;2022-07-06T11:21:37;20.30;99.90
13598;DHT22;38563;54.258;12.574;2022-07-06T11:24:06;19.90;99.90
13598;DHT22;38563;54.258;12.574;2022-07-06T11:26:34;20.20;99.90
13598;DHT22;38563;54.258;12.574;2022-07-06T11:29:04;20.20;99.90
13598;DHT22;38563;54.258;12.574;2022-07-06T11:31:34;19.60;99.90
13598;DHT22;38563;54.258;12.574;2022-07-06T11:34:01;19.50;99.90
13598;DHT22;38563;54.258;12.574;2022-07-06T11:36:28;19.20;99.90
13598;DHT22;38563;54.258;12.574;2022-07-06T11:38:54;18.90;99.90
13598;DHT22;38563;54.258;12.574;2022-07-06T11:41:22;19.30;99.90
13598;DHT22;38563;54.258;12.574;2022-07-06T11:43:49;19.60;99.90
13598;DHT22;38563;54.258;12.574;2022-07-06T11:46:21;19.70;99.90
13598;DHT22;38563;54.258;12.574;2022-07-06T11:48:49;19.70;99.90
13598;DHT22;38563;54.258;12.574;2022-07-06T11:51:16;19.60;99.90
13598;DHT22;38563;54.258;12.574;2022-07-06T11:53:44;19.90;99.90
13598;DHT22;38563;54.258;12.574;2022-07-06T11:56:12;19.90;99.90
13598;DHT22;38563;54.258;12.574;2022-07-06T11:58:40;20.00;99.90
13598;DHT22;38563;54.258;12.574;2022-07-06T12:01:10;20.00;99.90
13598;DHT22;38563;54.258;12.574;2022-07-06T12:03:37;19.70;99.90
13598;DHT22;38563;54.258;12.574;2022-07-06T12:06:05;19.70;99.90
13598;DHT22;38563;54.258;12.574;2022-07-06T12:08:41;19.50;99.90
13598;DHT22;38563;54.258;12.574;2022-07-06T12:11:08;19.20;99.90
13598;DHT22;38563;54.258;12.574;2022-07-06T12:13:36;19.50;99.90
13598;DHT22;38563;54.258;12.574;2022-07-06T12:16:10;20.00;99.90
13598;DHT22;38563;54.258;12.574;2022-07-06T12:18:38;20.00;99.90
13598;DHT22;38563;54.258;12.574;2022-07-06T12:21:07;19.90;99.90
13598;DHT22;38563;54.258;12.574;2022-07-06T12:23:42;19.60;99.90
13598;DHT22;38563;54.258;12.574;2022-07-06T12:26:09;19.60;99.90
13598;DHT22;38563;54.258;12.574;2022-07-06T12:28:36;20.10;99.90
13598;DHT22;38563;54.258;12.574;2022-07-06T12:31:04;20.60;99.90
13598;DHT22;38563;54.258;12.574;2022-07-06T12:33:32;20.40;99.90
13598;DHT22;38563;54.258;12.574;2022-07-06T12:36:09;20.50;99.90
13598;DHT22;38563;54.258;12.574;2022-07-06T12:38:44;20.10;99.90
13598;DHT22;38563;54.258;12.574;2022-07-06T12:41:22;19.30;99.90
13598;DHT22;38563;54.258;12.574;2022-07-06T12:44:00;18.40;99.90
13598;DHT22;38563;54.258;12.574;2022-07-06T12:46:27;17.70;99.90
13598;DHT22;38563;54.258;12.574;2022-07-06T12:48:57;17.30;99.90
13598;DHT22;38563;54.258;12.574;2022-07-06T12:51:24;16.90;99.90
13598;DHT22;38563;54.258;12.574;2022-07-06T12:53:50;16.70;99.90
13598;DHT22;38563;54.258;12.574;2022-07-06T12:56:17;16.40;99.90
13598;DHT22;38563;54.258;12.574;2022-07-06T12:58:56;16.30;99.90
13598;DHT22;38563;54.258;12.574;2022-07-06T13:01:22;16.10;99.90
13598;DHT22;38563;54.258;12.574;2022-07-06T13:03:53;16.00;99.90
13598;DHT22;38563;54.258;12.574;2022-07-06T13:06:29;16.10;99.90
13598;DHT22;38563;54.258;12.574;2022-07-06T13:08:56;16.20;99.90
13598;DHT22;38563;54.258;12.574;2022-07-06T13:11:23;16.20;99.90
13598;DHT22;38563;54.258;12.574;2022-07-06T13:13:49;16.30;99.90
13598;DHT22;38563;54.258;12.574;2022-07-06T13:16:16;16.30;99.90
13598;DHT22;38563;54.258;12.574;2022-07-06T13:18:43;16.50;99.90
13598;DHT22;38563;54.258;12.574;2022-07-06T13:21:10;16.70;99.90
13598;DHT22;38563;54.258;12.574;2022-07-06T13:23:38;16.90;99.90
13598;DHT22;38563;54.258;12.574;2022-07-06T13:26:05;17.20;99.90
13598;DHT22;38563;54.258;12.574;2022-07-06T13:28:32;17.70;99.90
13598;DHT22;38563;54.258;12.574;2022-07-06T13:30:58;18.80;99.90
13598;DHT22;38563;54.258;12.574;2022-07-06T13:33:25;19.60;99.90
13598;DHT22;38563;54.258;12.574;2022-07-06T13:35:52;20.20;99.90
13598;DHT22;38563;54.258;12.574;2022-07-06T13:38:18;20.30;99.90
13598;DHT22;38563;54.258;12.574;2022-07-06T13:40:46;19.90;99.90
13598;DHT22;38563;54.258;12.574;2022-07-06T13:43:13;19.90;99.90
13598;DHT22;38563;54.258;12.574;2022-07-06T13:45:40;20.20;99.90
13598;DHT22;38563;54.258;12.574;2022-07-06T13:48:06;19.80;99.90
13598;DHT22;38563;54.258;12.574;2022-07-06T13:50:33;19.50;99.90
13598;DHT22;38563;54.258;12.574;2022-07-06T13:53:00;19.70;99.90
13598;DHT22;38563;54.258;12.574;2022-07-06T13:55:27;20.00;99.90
13598;DHT22;38563;54.258;12.574;2022-07-06T13:57:55;20.40;99.90
13598;DHT22;38563;54.258;12.574;2022-07-06T14:00:21;20.40;99.90
13598;DHT22;38563;54.258;12.574;2022-07-06T14:02:48;20.80;99.90
13598;DHT22;38563;54.258;12.574;2022-07-06T14:05:15;21.20;99.90
13598;DHT22;38563;54.258;12.574;2022-07-06T14:07:42;21.60;99.90
13598;DHT22;38563;54.258;12.574;2022-07-06T14:10:08;21.60;99.90
13598;DHT22;38563;54.258;12.574;2022-07-06T14:12:35;21.50;99.90
13598;DHT22;38563;54.258;12.574;2022-07-06T14:15:04;22.00;99.90
13598;DHT22;38563;54.258;12.574;2022-07-06T14:17:31;21.60;99.90
13598;DHT22;38563;54.258;12.574;2022-07-06T14:19:57;21.40;99.90
13598;DHT22;38563;54.258;12.574;2022-07-06T14:22:24;21.50;99.90
13598;DHT22;38563;54.258;12.574;2022-07-06T14:24:51;21.60;99.90
13598;DHT22;38563;54.258;12.574;2022-07-06T14:27:17;21.80;99.90
13598;DHT22;38563;54.258;12.574;2022-07-06T14:29:44;21.70;99.90
13598;DHT22;38563;54.258;12.574;2022-07-06T14:32:12;21.70;99.90
13598;DHT22;38563;54.258;12.574;2022-07-06T14:34:39;21.80;99.90
13598;DHT22;38563;54.258;12.574;2022-07-06T14:37:06;21.70;99.90
13598;DHT22;38563;54.258;12.574;2022-07-06T14:39:32;22.00;99.90
13598;DHT22;38563;54.258;12.574;2022-07-06T14:41:59;22.20;99.90
13598;DHT22;38563;54.258;12.574;2022-07-06T14:44:26;22.10;99.90
13598;DHT22;38563;54.258;12.574;2022-07-06T14:46:52;22.40;99.90
13598;DHT22;38563;54.258;12.574;2022-07-06T14:49:20;22.20;99.90
13598;DHT22;38563;54.258;12.574;2022-07-06T14:51:48;22.20;99.90
13598;DHT22;38563;54.258;12.574;2022-07-06T14:54:15;22.40;99.90
13598;DHT22;38563;54.258;12.574;2022-07-06T14:56:41;22.30;99.90
13598;DHT22;38563;54.258;12.574;2022-07-06T14:59:08;22.40;99.90
13598;DHT22;38563;54.258;12.574;2022-07-06T15:01:35;22.40;99.90
13598;DHT22;38563;54.258;12.574;2022-07-06T15:04:01;22.40;99.90
13598;DHT22;38563;54.258;12.574;2022-07-06T15:06:30;22.40;99.90
13598;DHT22;38563;54.258;12.574;2022-07-06T15:08:56;22.40;99.90
13598;DHT22;38563;54.258;12.574;2022-07-06T15:11:23;22.30;99.90
13598;DHT22;38563;54.258;12.574;2022-07-06T15:13:50;22.30;99.90
13598;DHT22;38563;54.258;12.574;2022-07-06T15:16:16;22.20;99.90
13598;DHT22;38563;54.258;12.574;2022-07-06T15:18:43;22.40;99.90
13598;DHT22;38563;54.258;12.574;2022-07-06T15:21:10;22.40;99.90